Time;durP1;ratioP1;P1;durP2;ratioP2;P2;SDS_P1;SDS_P2;PMS_P1;PMS_P2;Temp;Humidity;BMP_temperature;BMP_pressure;BME280_temperature;BME280_humidity;BME280_pressure;Samples;Min_cycle;Max_cycle;Signal;HPM_P1;HPM_P2
2023/11/25 00:02:17;;;;;;;14.32;1.77;;;;;;;-146.27;78.97;33727.91;5102091;28;20028;-71
2023/11/25 00:04:42;;;;;;;18.02;2.00;;;;;;;-146.27;79.08;33668.38;5105047;28;20376;-70
2023/11/25 00:07:07;;;;;;;12.60;2.70;;;;;;;-146.27;79.12;33712.03;5100432;28;20103;-69
2023/11/25 00:09:33;;;;;;;12.75;1.60;;;;;;;-146.27;79.44;33747.75;5104541;28;20039;-71
2023/11/25 00:11:58;;;;;;;15.10;1.67;;;;;;;-146.27;79.61;33751.72;5111107;28;20031;-71
2023/11/25 00:14:24;;;;;;;17.27;2.10;;;;;;;-146.27;79.87;33716.00;5109043;28;20484;-72
2023/11/25 00:16:50;;;;;;;9.23;1.60;;;;;;;-146.27;79.83;33719.97;5096893;28;20110;-69
2023/11/25 00:19:16;;;;;;;12.23;2.05;;;;;;;-146.27;80.13;33781.47;5100790;28;20048;-69
2023/11/25 00:21:42;;;;;;;14.45;1.88;;;;;;;-146.27;80.47;33807.28;5100541;28;20031;-72
2023/11/25 00:24:07;;;;;;;12.95;2.13;;;;;;;-146.27;80.53;33815.22;5091637;28;20034;-71
2023/11/25 00:26:33;;;;;;;11.65;1.85;;;;;;;-146.27;81.31;33817.19;5109526;28;20415;-71
2023/11/25 00:28:58;;;;;;;14.02;1.80;;;;;;;-146.27;81.24;33801.31;5110072;28;20144;-71
2023/11/25 00:31:24;;;;;;;13.93;1.55;;;;;;;-146.27;81.54;33805.28;5088702;28;20023;-71
2023/11/25 00:33:50;;;;;;;16.23;1.80;;;;;;;-146.27;81.45;33856.88;5102378;28;20085;-70
2023/11/25 00:36:15;;;;;;;16.88;2.17;;;;;;;-146.27;81.87;33843.00;5103914;28;20027;-70
2023/11/25 00:38:41;;;;;;;10.65;1.42;;;;;;;-146.27;82.09;33846.97;5102858;28;20019;-71
2023/11/25 00:41:06;;;;;;;11.15;1.70;;;;;;;-146.27;81.98;33815.22;5108053;28;20039;-71
2023/11/25 00:43:32;;;;;;;17.92;3.17;;;;;;;-146.27;81.81;33805.28;5104592;28;20539;-70
2023/11/25 00:45:58;;;;;;;21.45;2.53;;;;;;;-146.27;81.86;33815.22;5103779;28;20458;-71
2023/11/25 00:48:23;;;;;;;18.27;2.63;;;;;;;-146.27;81.71;33819.19;5101484;28;20027;-70
2023/11/25 00:50:49;;;;;;;14.63;1.90;;;;;;;-146.27;81.62;33787.44;5099175;28;20498;-71
2023/11/25 00:53:15;;;;;;;19.58;2.25;;;;;;;-146.27;81.49;33862.84;5100064;28;20489;-70
2023/11/25 00:55:40;;;;;;;19.40;2.40;;;;;;;-146.27;81.38;33819.19;5098918;28;20054;-70
2023/11/25 00:58:06;;;;;;;21.38;3.00;;;;;;;-146.27;81.20;33787.44;5093510;28;20020;-72
2023/11/25 01:00:32;;;;;;;34.10;3.63;;;;;;;-146.27;81.18;33763.63;5091556;28;20043;-71
2023/11/25 01:02:57;;;;;;;23.80;1.92;;;;;;;-146.27;81.00;33684.25;5097827;28;20031;-70
2023/11/25 01:05:23;;;;;;;15.80;2.28;;;;;;;-146.27;80.92;33672.34;5091916;28;20028;-70
2023/11/25 01:07:48;;;;;;;19.35;3.83;;;;;;;-146.27;80.75;33716.00;5100201;28;20024;-70
2023/11/25 01:10:14;;;;;;;26.38;3.05;;;;;;;-146.27;80.72;33656.47;5098490;28;20501;-71
2023/11/25 01:12:40;;;;;;;21.17;2.55;;;;;;;-146.27;80.81;33700.13;5102713;28;20039;-71
2023/11/25 01:15:07;;;;;;;23.17;3.47;;;;;;;-146.27;80.27;33618.78;5097218;28;20027;-70
2023/11/25 01:17:32;;;;;;;15.73;2.13;;;;;;;-146.27;79.88;33598.94;5095606;28;20036;-70
2023/11/25 01:19:58;;;;;;;26.08;2.60;;;;;;;-146.27;78.54;33648.53;5096250;28;20099;-72
2023/11/25 01:22:24;;;;;;;12.30;2.45;;;;;;;-146.27;77.99;33604.88;5097594;28;20035;-71
2023/11/25 01:24:52;;;;;;;23.42;2.72;;;;;;;-146.27;77.37;33594.97;5100149;28;20053;-71
2023/11/25 01:27:18;;;;;;;14.55;2.10;;;;;;;-146.27;75.98;33610.84;5096344;28;20027;-70
2023/11/25 01:29:43;;;;;;;19.65;1.95;;;;;;;-146.27;76.02;33608.84;5103901;28;20470;-70
2023/11/25 01:32:09;;;;;;;17.63;2.38;;;;;;;-146.27;75.43;33618.78;5092717;28;20024;-71
2023/11/25 01:34:35;;;;;;;16.58;2.45;;;;;;;-146.27;75.47;33596.94;5107594;28;20115;-70
2023/11/25 01:37:00;;;;;;;23.88;1.65;;;;;;;-146.27;75.26;33604.88;5103386;28;20428;-69
2023/11/25 01:39:26;;;;;;;22.23;2.75;;;;;;;-146.27;75.32;33616.78;5104598;28;20037;-71
2023/11/25 01:41:51;;;;;;;17.10;1.98;;;;;;;-146.27;75.31;33630.69;5107466;28;20051;-72
2023/11/25 01:44:17;;;;;;;22.13;1.88;;;;;;;-146.27;75.26;33612.81;5109738;28;20070;-71
2023/11/25 01:46:43;;;;;;;28.48;2.13;;;;;;;-146.27;75.30;33614.81;5091657;28;20024;-70
2023/11/25 01:49:10;;;;;;;14.57;2.22;;;;;;;-146.27;75.31;33656.47;5107137;28;20039;-71
2023/11/25 01:51:38;;;;;;;13.00;1.80;;;;;;;-146.27;75.15;33620.75;5096993;28;20387;-71
2023/11/25 01:54:05;;;;;;;17.95;1.95;;;;;;;-146.27;74.80;33644.56;5093772;28;20015;-73
2023/11/25 01:56:31;;;;;;;10.27;2.10;;;;;;;-146.27;74.52;33549.31;5096323;28;20096;-70
2023/11/25 01:58:58;;;;;;;10.80;1.70;;;;;;;-146.27;73.95;33620.75;5097409;28;20051;-72
2023/11/25 02:01:25;;;;;;;16.08;2.30;;;;;;;-146.27;73.75;33620.75;5097140;28;20039;-70
2023/11/25 02:03:50;;;;;;;18.00;2.30;;;;;;;-146.27;72.94;33644.56;5089641;28;20016;-70
2023/11/25 02:06:16;;;;;;;20.35;2.47;;;;;;;-146.27;73.31;33589.00;5106305;28;20034;-70
2023/11/25 02:08:43;;;;;;;9.65;2.03;;;;;;;-146.27;72.93;33565.19;5097748;28;20008;-71
2023/11/25 02:11:08;;;;;;;16.05;2.08;;;;;;;-146.27;72.79;33545.34;5094475;28;20019;-71
2023/11/25 02:13:34;;;;;;;15.75;4.22;;;;;;;-146.27;72.34;33525.50;5094806;28;20424;-71
2023/11/25 02:15:59;;;;;;;15.70;2.00;;;;;;;-146.27;71.99;33565.19;5108328;28;20027;-70
2023/11/25 02:18:25;;;;;;;16.40;1.88;;;;;;;-146.27;71.66;33537.41;5097401;28;20580;-71
2023/11/25 02:20:50;;;;;;;17.33;1.80;;;;;;;-146.27;71.67;33589.00;5107885;28;20051;-70
2023/11/25 02:23:22;;;;;;;10.10;1.30;;;;;;;-146.27;71.87;33583.06;5090322;28;20556;-71
2023/11/25 02:25:48;;;;;;;10.13;1.98;;;;;;;-146.27;71.64;33592.97;5090334;28;20051;-70
2023/11/25 02:28:15;;;;;;;16.13;2.22;;;;;;;-146.27;72.04;33604.88;5090556;28;20028;-72
2023/11/25 02:30:42;;;;;;;9.63;1.65;;;;;;;-146.27;72.28;33565.19;5109124;28;20020;-71
2023/11/25 02:33:08;;;;;;;17.15;2.00;;;;;;;-146.27;72.16;33565.19;5092064;28;20020;-71
2023/11/25 02:35:34;;;;;;;10.30;2.05;;;;;;;-146.27;72.40;33594.97;5093735;28;20095;-71
2023/11/25 02:38:00;;;;;;;26.45;2.22;;;;;;;-146.27;72.60;33618.78;5092833;28;20043;-72
2023/11/25 02:40:25;;;;;;;15.20;1.95;;;;;;;-146.27;72.54;33622.75;5091969;28;20020;-70
2023/11/25 02:42:50;;;;;;;13.57;1.77;;;;;;;-146.27;72.98;33646.53;5102563;28;20051;-71
2023/11/25 02:45:22;;;;;;;15.65;1.55;;;;;;;-146.27;73.51;33684.25;5103533;28;20050;-69
2023/11/25 02:47:48;;;;;;;16.98;2.40;;;;;;;-146.27;74.12;33690.19;5093402;28;20093;-69
2023/11/25 02:50:15;;;;;;;19.63;1.80;;;;;;;-146.27;74.56;33698.13;5101098;28;20055;-70
2023/11/25 02:52:40;;;;;;;25.65;4.68;;;;;;;-146.27;74.87;33702.09;5094029;28;20080;-70
2023/11/25 02:55:10;;;;;;;19.85;2.17;;;;;;;-146.27;75.33;33684.25;5096583;28;20640;-70
2023/11/25 02:57:43;;;;;;;21.75;2.65;;;;;;;-146.27;75.87;33717.97;5077493;28;20031;-71
2023/11/25 03:00:27;;;;;;;14.65;2.72;;;;;;;-146.27;76.10;33672.34;5104592;28;20560;-70
2023/11/25 03:03:00;;;;;;;12.63;2.70;;;;;;;-146.27;76.55;33719.97;5092346;28;20047;-71
2023/11/25 03:05:31;;;;;;;18.63;2.92;;;;;;;-146.27;76.76;33684.25;5105711;28;20466;-72
2023/11/25 03:07:56;;;;;;;13.95;2.85;;;;;;;-146.27;77.10;33712.03;5106935;28;20028;-72
2023/11/25 03:10:25;;;;;;;20.70;2.22;;;;;;;-146.27;77.03;33710.03;5105923;28;20372;-70
2023/11/25 03:12:51;;;;;;;25.15;3.08;;;;;;;-146.27;77.30;33716.00;5098710;28;20079;-70
2023/11/25 03:15:16;;;;;;;24.50;3.05;;;;;;;-146.27;77.47;33727.91;5100343;28;20554;-71
2023/11/25 03:17:41;;;;;;;15.82;2.63;;;;;;;-146.27;77.94;33747.75;5104922;28;20487;-70
2023/11/25 03:20:07;;;;;;;22.00;2.33;;;;;;;-146.27;78.31;33735.84;5099872;28;20035;-70
2023/11/25 03:22:33;;;;;;;12.68;1.80;;;;;;;-146.27;78.96;33731.88;5104702;28;20418;-70
2023/11/25 03:24:59;;;;;;;14.68;2.42;;;;;;;-146.27;79.05;33729.88;5098194;28;20077;-70
2023/11/25 03:27:24;;;;;;;22.60;2.47;;;;;;;-146.27;79.46;33733.84;5098186;28;20044;-70
2023/11/25 03:29:50;;;;;;;20.92;2.78;;;;;;;-146.27;79.33;33716.00;5104699;28;20110;-70
2023/11/25 03:32:15;;;;;;;23.55;3.92;;;;;;;-146.27;78.71;33676.31;5097558;28;20023;-70
2023/11/25 03:34:42;;;;;;;12.00;1.98;;;;;;;-146.27;78.11;33620.75;5096548;28;20070;-71
2023/11/25 03:37:08;;;;;;;21.40;3.38;;;;;;;-146.27;77.90;33606.88;5107479;28;20034;-70
2023/11/25 03:39:35;;;;;;;17.15;2.08;;;;;;;-146.27;77.71;33620.75;5111051;28;20118;-71
2023/11/25 03:42:01;;;;;;;15.68;2.65;;;;;;;-146.27;77.65;33606.88;5106987;28;20033;-71
2023/11/25 03:44:27;;;;;;;8.95;1.48;;;;;;;-146.27;77.18;33579.09;5107390;28;20027;-73
2023/11/25 03:46:52;;;;;;;22.63;2.33;;;;;;;-146.27;76.85;33537.41;5103431;28;20028;-70
2023/11/25 03:49:18;;;;;;;10.45;2.22;;;;;;;-146.27;76.71;33533.44;5107690;28;20042;-71
2023/11/25 03:51:44;;;;;;;15.15;1.60;;;;;;;-146.27;77.19;33507.66;5100428;28;20031;-71
2023/11/25 03:54:09;;;;;;;14.88;2.10;;;;;;;-146.27;77.43;33533.44;5104122;28;20061;-71
2023/11/25 03:56:35;;;;;;;10.93;1.70;;;;;;;-146.27;77.87;33563.22;5102614;28;20562;-70
2023/11/25 03:59:00;;;;;;;14.88;2.20;;;;;;;-146.27;78.00;33533.44;5093170;28;20536;-72
2023/11/25 04:01:26;;;;;;;14.85;2.67;;;;;;;-146.27;78.66;33543.38;5093843;28;20030;-71
2023/11/25 04:03:51;;;;;;;6.75;1.05;;;;;;;-146.27;78.03;33505.66;5103121;28;20161;-71
2023/11/25 04:06:16;;;;;;;2.08;0.50;;;;;;;-146.27;78.22;33561.22;5103843;28;20121;-71
2023/11/25 04:08:42;;;;;;;7.63;1.00;;;;;;;-146.27;78.79;33561.22;5104232;28;20172;-72
2023/11/25 04:11:07;;;;;;;4.00;0.50;;;;;;;-146.27;78.51;33577.09;5098415;28;20032;-69
2023/11/25 04:13:32;;;;;;;2.40;0.20;;;;;;;-146.27;79.09;33594.97;5096183;28;20525;-71
2023/11/25 04:15:59;;;;;;;5.03;0.50;;;;;;;-146.27;79.12;33616.78;5107168;28;20035;-72
2023/11/25 04:18:25;;;;;;;5.15;0.65;;;;;;;-146.27;79.93;33634.66;5098419;28;20048;-71
2023/11/25 04:20:50;;;;;;;5.18;0.73;;;;;;;-146.27;79.88;33660.44;5101831;28;20030;-71
2023/11/25 04:23:16;;;;;;;5.57;0.85;;;;;;;-146.27;80.47;33660.44;5100704;28;20047;-71
2023/11/25 04:25:43;;;;;;;8.55;0.82;;;;;;;-146.27;81.12;33680.28;5104168;28;20475;-71
2023/11/25 04:28:11;;;;;;;3.13;0.88;;;;;;;-146.27;81.51;33678.28;5111246;28;20450;-70
2023/11/25 04:30:38;;;;;;;8.45;1.10;;;;;;;-146.27;81.96;33731.88;5105607;28;20102;-71
2023/11/25 04:33:06;;;;;;;9.38;0.90;;;;;;;-146.27;82.51;33694.16;5101436;28;20024;-70
2023/11/25 04:35:32;;;;;;;10.93;1.67;;;;;;;-146.27;82.27;33684.25;5100157;28;20035;-71
2023/11/25 04:37:57;;;;;;;7.55;0.82;;;;;;;-146.27;82.41;33684.25;5107980;28;20015;-70
2023/11/25 04:40:24;;;;;;;9.23;1.63;;;;;;;-146.27;82.25;33634.66;5099494;28;20726;-69
2023/11/25 04:42:49;;;;;;;8.00;1.10;;;;;;;-146.27;82.60;33646.53;5103937;28;20603;-70
2023/11/25 04:45:19;;;;;;;9.15;1.00;;;;;;;-146.27;82.63;33664.41;5106330;28;20036;-71
2023/11/25 04:47:47;;;;;;;11.38;1.00;;;;;;;-146.27;82.40;33624.72;5108714;28;20507;-69
2023/11/25 04:50:14;;;;;;;10.13;1.15;;;;;;;-146.27;82.43;33638.59;5091281;28;20059;-69
2023/11/25 04:52:39;;;;;;;10.88;0.90;;;;;;;-146.27;82.80;33626.72;5102173;28;20015;-70
2023/11/25 04:55:06;;;;;;;10.18;1.38;;;;;;;-146.27;82.79;33628.69;5098929;28;20030;-70
2023/11/25 04:57:32;;;;;;;10.77;0.77;;;;;;;-146.27;83.25;33680.28;5104707;28;20024;-71
2023/11/25 04:59:58;;;;;;;14.23;1.67;;;;;;;-146.27;83.11;33662.41;5091625;28;20035;-71
2023/11/25 05:02:23;;;;;;;17.27;1.33;;;;;;;-146.27;82.67;33638.59;5097221;28;20144;-71
2023/11/25 05:04:49;;;;;;;8.32;1.25;;;;;;;-146.27;82.52;33634.66;5102387;28;20513;-71
2023/11/25 05:07:15;;;;;;;11.98;1.40;;;;;;;-146.27;82.63;33674.31;5098117;28;20110;-71
2023/11/25 05:09:41;;;;;;;10.75;1.35;;;;;;;-146.27;82.53;33666.38;5095151;28;20024;-71
2023/11/25 05:12:07;;;;;;;6.80;1.20;;;;;;;-146.27;82.06;33581.06;5095121;28;20541;-70
2023/11/25 05:14:33;;;;;;;15.68;1.90;;;;;;;-146.27;81.95;33648.53;5096660;28;20032;-70
2023/11/25 05:16:59;;;;;;;13.18;1.17;;;;;;;-146.27;80.97;33620.75;5101648;28;20543;-71
2023/11/25 05:19:24;;;;;;;11.27;1.70;;;;;;;-146.27;81.22;33581.06;5101904;28;20123;-71
2023/11/25 05:21:51;;;;;;;12.45;1.95;;;;;;;-146.27;80.70;33509.63;5100853;28;20040;-70
2023/11/25 05:24:16;;;;;;;19.42;1.27;;;;;;;-146.27;80.69;33501.69;5094020;28;20024;-71
2023/11/25 05:26:42;;;;;;;8.82;1.30;;;;;;;-146.27;80.37;33499.72;5102615;28;20566;-71
2023/11/25 05:29:07;;;;;;;12.23;1.42;;;;;;;-146.27;80.15;33509.63;5101887;28;20058;-71
2023/11/25 05:31:36;;;;;;;17.30;1.80;;;;;;;-146.27;79.66;33559.25;5099161;28;20435;-70
2023/11/25 05:34:03;;;;;;;6.88;0.77;;;;;;;-146.27;79.71;33535.44;5093582;28;20034;-69
2023/11/25 05:36:30;;;;;;;4.97;0.57;;;;;;;-146.27;79.85;33571.16;5092831;28;20077;-69
2023/11/25 05:38:56;;;;;;;11.10;1.10;;;;;;;-146.27;79.70;33559.25;5109765;28;20114;-69
2023/11/25 05:41:22;;;;;;;4.03;0.80;;;;;;;-146.27;80.30;33589.00;5076421;28;20122;-71
2023/11/25 05:43:50;;;;;;;5.68;0.80;;;;;;;-146.27;80.34;33596.94;5102108;28;20122;-70
2023/11/25 05:46:25;;;;;;;3.53;1.20;;;;;;;-146.27;80.40;33589.00;5091745;28;20166;-71
2023/11/25 05:48:53;;;;;;;4.32;0.73;;;;;;;-146.27;80.42;33616.78;5107671;28;20019;-70
2023/11/25 05:51:18;;;;;;;7.07;0.77;;;;;;;-146.27;80.12;33596.94;5107976;28;20030;-71
2023/11/25 05:53:45;;;;;;;6.15;2.65;;;;;;;-146.27;79.89;33612.81;5101678;28;20404;-71
2023/11/25 05:56:10;;;;;;;3.10;0.55;;;;;;;-146.27;79.97;33660.44;5093222;28;20028;-71
2023/11/25 05:58:35;;;;;;;9.55;1.02;;;;;;;-146.27;79.64;33652.50;5089651;28;20031;-71
2023/11/25 06:01:02;;;;;;;3.10;0.68;;;;;;;-146.27;79.82;33662.41;5098633;28;20019;-71
2023/11/25 06:03:28;;;;;;;10.25;1.35;;;;;;;-146.27;79.82;33696.16;5097268;28;20023;-71
2023/11/25 06:05:53;;;;;;;5.68;0.95;;;;;;;-146.27;79.77;33642.56;5099826;28;20035;-72
2023/11/25 06:08:20;;;;;;;6.25;0.80;;;;;;;-146.27;79.64;33680.28;5090713;28;20073;-72
2023/11/25 06:10:48;;;;;;;3.20;0.60;;;;;;;-146.27;79.75;33664.41;5097988;28;20102;-70
2023/11/25 06:13:14;;;;;;;6.35;0.98;;;;;;;-146.27;79.88;33676.31;5100109;28;20024;-71
2023/11/25 06:15:39;;;;;;;8.77;1.08;;;;;;;-146.27;80.02;33640.59;5099161;28;20046;-71
2023/11/25 06:18:04;;;;;;;12.25;1.13;;;;;;;-146.27;80.21;33660.44;5095717;28;20044;-70
2023/11/25 06:20:30;;;;;;;5.93;1.20;;;;;;;-146.27;80.30;33630.69;5089638;28;20020;-71
2023/11/25 06:22:55;;;;;;;9.00;1.50;;;;;;;-146.27;80.51;33596.94;5105521;28;20429;-71
2023/11/25 06:25:22;;;;;;;17.00;1.10;;;;;;;-146.27;80.86;33581.06;5091800;28;20028;-71
2023/11/25 06:27:47;;;;;;;7.40;1.45;;;;;;;-146.27;81.64;33616.78;5097814;28;20399;-71
2023/11/25 06:30:13;;;;;;;10.82;1.00;;;;;;;-146.27;82.28;33594.97;5109091;28;20026;-71
2023/11/25 06:32:39;;;;;;;6.88;0.90;;;;;;;-146.27;82.59;33592.97;5098481;28;20020;-70
2023/11/25 06:35:06;;;;;;;8.63;0.88;;;;;;;-146.27;82.34;33598.94;5093589;28;20028;-71
2023/11/25 06:37:33;;;;;;;14.02;1.15;;;;;;;-146.27;82.57;33606.88;5102363;28;20031;-72
2023/11/25 06:39:58;;;;;;;11.02;0.90;;;;;;;-146.27;82.43;33646.53;5098028;28;20613;-71
2023/11/25 06:42:24;;;;;;;10.13;1.35;;;;;;;-146.27;82.36;33636.63;5071962;28;20053;-71
2023/11/25 06:44:51;;;;;;;18.85;1.75;;;;;;;-146.27;82.05;33636.63;5103075;28;20216;-72
2023/11/25 06:47:17;;;;;;;13.63;1.55;;;;;;;-146.27;82.16;33594.97;5099326;28;20032;-70
2023/11/25 06:49:44;;;;;;;15.27;1.45;;;;;;;-146.27;82.38;33678.28;5107689;28;20115;-71
2023/11/25 06:52:10;;;;;;;15.48;1.75;;;;;;;-146.27;82.38;33646.53;5109669;28;20099;-69
2023/11/25 06:54:35;;;;;;;15.23;1.20;;;;;;;-146.27;82.18;33596.94;5090025;28;20020;-70
2023/11/25 06:57:00;;;;;;;10.93;1.35;;;;;;;-146.27;81.95;33573.13;5092289;28;20015;-71
2023/11/25 06:59:26;;;;;;;7.43;1.02;;;;;;;-146.27;81.82;33577.09;5109528;28;20472;-71
2023/11/25 07:01:55;;;;;;;17.05;2.08;;;;;;;-146.27;81.95;33545.34;5100097;28;20039;-68
2023/11/25 07:04:21;;;;;;;20.00;1.52;;;;;;;-146.27;81.63;33561.22;5089658;28;20039;-72
2023/11/25 07:06:46;;;;;;;12.30;2.03;;;;;;;-146.27;81.67;33537.41;5100194;28;20024;-70
2023/11/25 07:09:13;;;;;;;9.75;1.30;;;;;;;-146.27;81.51;33525.50;5113995;28;20055;-70
2023/11/25 07:11:40;;;;;;;13.23;1.40;;;;;;;-146.27;81.71;33509.63;5112676;28;20463;-71
2023/11/25 07:14:06;;;;;;;13.70;1.80;;;;;;;-146.27;81.79;33537.41;5104231;28;20035;-70
2023/11/25 07:16:33;;;;;;;7.15;1.17;;;;;;;-146.27;81.78;33537.41;5099707;28;20028;-73
2023/11/25 07:19:00;;;;;;;8.30;1.23;;;;;;;-146.27;81.98;33515.59;5111913;28;20050;-70
2023/11/25 07:21:26;;;;;;;20.05;1.98;;;;;;;-146.27;81.88;33505.66;5114021;28;20719;-71
2023/11/25 07:23:52;;;;;;;11.80;1.60;;;;;;;-146.27;81.64;33533.44;5113389;28;20019;-71
2023/11/25 07:26:18;;;;;;;11.95;1.27;;;;;;;-146.27;81.65;33485.81;5092323;28;20032;-69
2023/11/25 07:28:43;;;;;;;17.23;2.55;;;;;;;-146.27;81.64;33507.66;5094880;28;20480;-72
2023/11/25 07:31:11;;;;;;;13.55;1.63;;;;;;;-146.27;81.29;33493.75;5103357;28;20043;-69
2023/11/25 07:33:36;;;;;;;14.40;1.52;;;;;;;-146.27;81.45;33485.81;5098090;28;20495;-73
2023/11/25 07:36:02;;;;;;;15.25;2.25;;;;;;;-146.27;81.65;33505.66;5092959;28;20032;-69
2023/11/25 07:38:28;;;;;;;16.05;1.70;;;;;;;-146.27;81.36;33493.75;5093099;28;20036;-69
2023/11/25 07:40:53;;;;;;;6.20;0.70;;;;;;;-146.27;81.28;33489.78;5101676;28;20103;-71
2023/11/25 07:43:19;;;;;;;13.60;0.90;;;;;;;-146.27;81.11;33525.50;5092816;28;20114;-71
2023/11/25 07:45:44;;;;;;;11.20;2.80;;;;;;;-146.27;80.71;33541.38;5092613;27;20476;-70
2023/11/25 07:48:10;;;;;;;5.35;1.45;;;;;;;-146.27;80.32;33507.66;5095034;28;20446;-70
2023/11/25 07:50:37;;;;;;;2.20;0.90;;;;;;;-146.27;79.88;33493.75;5105469;28;20019;-72
2023/11/25 07:53:02;;;;;;;6.40;1.10;;;;;;;-146.27;79.66;33450.09;5094898;28;20020;-69
2023/11/25 07:55:27;;;;;;;5.15;0.90;;;;;;;-146.27;79.93;33462.00;5097802;28;20740;-70
2023/11/25 07:57:53;;;;;;;10.80;1.40;;;;;;;-146.27;79.44;33458.03;5097201;28;20034;-70
2023/11/25 08:00:19;;;;;;;11.50;1.10;;;;;;;-146.27;79.42;33398.53;5093760;28;20107;-80
2023/11/25 08:02:47;;;;;;;5.20;0.73;;;;;;;-146.27;78.71;33438.19;5098479;27;20131;-70
2023/11/25 08:05:21;;;;;;;5.30;0.60;;;;;;;-146.27;78.14;33438.19;5093583;28;20024;-70
2023/11/25 08:07:49;;;;;;;9.55;0.98;;;;;;;-146.27;78.08;33485.81;5098735;28;20088;-70
2023/11/25 08:10:15;;;;;;;7.70;0.98;;;;;;;-146.27;77.97;33452.09;5095584;27;20038;-76
2023/11/25 08:12:41;;;;;;;6.13;1.25;;;;;;;-146.27;78.30;33438.19;5098951;27;20036;-70
2023/11/25 08:15:07;;;;;;;4.25;1.13;;;;;;;-146.27;78.55;33406.47;5099159;28;20073;-72
2023/11/25 08:17:33;;;;;;;12.00;1.40;;;;;;;-146.27;78.90;33446.13;5094580;28;20112;-71
2023/11/25 08:19:58;;;;;;;8.85;0.98;;;;;;;-146.27;79.25;33458.03;5114189;27;20023;-70
2023/11/25 08:22:26;;;;;;;6.18;0.90;;;;;;;-146.27;78.87;33477.88;5098120;28;20035;-71
2023/11/25 08:24:56;;;;;;;5.85;0.80;;;;;;;-146.27;77.98;33438.19;5096868;28;20028;-71
2023/11/25 08:27:22;;;;;;;8.73;0.93;;;;;;;-146.27;77.94;33442.16;5079131;28;20062;-71
2023/11/25 08:29:47;;;;;;;8.35;0.70;;;;;;;-146.27;78.01;33483.84;5081345;28;20410;-70
2023/11/25 08:32:13;;;;;;;8.32;0.85;;;;;;;-146.27;78.12;33448.13;5096178;28;20061;-72
2023/11/25 08:34:38;;;;;;;11.73;1.00;;;;;;;-146.27;77.77;33432.25;5101765;28;20095;-71
2023/11/25 08:37:07;;;;;;;11.93;1.38;;;;;;;-146.27;77.64;33442.16;5106362;28;20031;-73
2023/11/25 08:39:36;;;;;;;8.07;1.10;;;;;;;-146.27;77.59;33412.41;5097593;27;20457;-73
2023/11/25 08:42:02;;;;;;;8.15;1.55;;;;;;;-146.27;77.90;33438.19;5100991;28;20479;-71
2023/11/25 08:44:28;;;;;;;13.93;1.77;;;;;;;-146.27;77.84;33384.63;5093880;28;20031;-73
2023/11/25 08:46:55;;;;;;;18.05;2.28;;;;;;;-146.27;77.59;33382.66;5092235;28;20081;-70
2023/11/25 08:49:21;;;;;;;9.20;1.02;;;;;;;-146.27;77.61;33339.00;5097760;28;20028;-70
2023/11/25 08:51:49;;;;;;;9.93;1.40;;;;;;;-146.27;77.83;33370.75;5093866;28;20027;-71
2023/11/25 08:54:18;;;;;;;12.25;2.03;;;;;;;-146.27;77.62;33348.91;5091587;28;20082;-71
2023/11/25 08:56:45;;;;;;;15.38;1.20;;;;;;;-146.27;77.37;33261.63;5104978;28;20433;-70
2023/11/25 08:59:20;;;;;;;8.32;1.08;;;;;;;-146.27;76.74;33317.16;5109997;28;20068;-71
2023/11/25 09:01:47;;;;;;;12.07;1.77;;;;;;;-146.27;76.04;33287.41;5108224;28;20024;-71
2023/11/25 09:04:20;;;;;;;11.60;1.65;;;;;;;-146.27;75.77;33239.78;5099376;28;20027;-71
2023/11/25 09:06:49;;;;;;;7.13;1.60;;;;;;;-146.27;76.01;33219.94;5105728;28;20034;-69
2023/11/25 09:09:17;;;;;;;9.68;1.10;;;;;;;-146.27;76.41;33219.94;5107686;27;20152;-70
2023/11/25 09:11:43;;;;;;;20.88;1.83;;;;;;;-146.27;76.54;33204.06;5087472;28;20832;-70
2023/11/25 09:14:09;;;;;;;21.70;2.03;;;;;;;-146.27;76.33;33192.16;5104013;28;20103;-70
2023/11/25 09:16:34;;;;;;;7.20;0.98;;;;;;;-146.27;75.36;33245.75;5102715;28;20390;-70
2023/11/25 09:19:03;;;;;;;13.13;2.03;;;;;;;-146.27;74.92;33223.91;5103022;28;20054;-70
2023/11/25 09:21:28;;;;;;;14.77;1.58;;;;;;;-146.27;73.67;33231.84;5093499;28;20054;-72
2023/11/25 09:23:57;;;;;;;10.15;1.33;;;;;;;-146.27;73.11;33184.25;5099341;28;20476;-71
2023/11/25 09:26:24;;;;;;;7.65;1.77;;;;;;;-146.27;72.31;33196.13;5101224;28;20097;-70
2023/11/25 09:28:51;;;;;;;11.23;0.98;;;;;;;-146.27;72.27;33154.47;5093867;28;20032;-72
2023/11/25 09:31:18;;;;;;;10.85;1.42;;;;;;;-146.27;71.77;33168.38;5085691;28;20058;-70
2023/11/25 09:33:43;;;;;;;13.10;1.40;;;;;;;-146.27;70.12;33106.84;5094074;28;20091;-68
2023/11/25 09:36:12;;;;;;;15.07;1.55;;;;;;;-146.27;69.90;33096.94;5104909;28;20445;-72
2023/11/25 09:38:37;;;;;;;14.20;1.40;;;;;;;-146.27;70.56;33063.22;5097632;28;20060;-71
2023/11/25 09:41:03;;;;;;;9.32;1.42;;;;;;;-146.27;69.74;33017.56;5094054;28;20445;-70
2023/11/25 09:43:29;;;;;;;11.75;1.67;;;;;;;-146.27;69.39;32995.75;5092175;28;20089;-71
2023/11/25 09:45:56;;;;;;;7.25;1.40;;;;;;;-146.27;69.47;33009.66;5103516;28;21820;-72
2023/11/25 09:48:21;;;;;;;12.38;2.03;;;;;;;-146.27;68.74;32936.25;5091464;28;20706;-71
2023/11/25 09:50:52;;;;;;;10.65;1.48;;;;;;;-146.27;68.46;32878.72;5093815;28;20030;-70
2023/11/25 09:53:24;;;;;;;10.48;1.42;;;;;;;-146.27;68.33;32852.91;5093395;28;20059;-70
2023/11/25 09:56:16;;;;;;;6.82;1.02;;;;;;;-146.27;67.24;32858.88;5093211;28;20027;-69
2023/11/25 09:58:42;;;;;;;6.82;1.00;;;;;;;-146.27;66.92;32900.53;5089462;28;20545;-70
2023/11/25 10:01:12;;;;;;;4.10;1.00;;;;;;;-146.27;67.23;32811.25;5080958;28;20024;-70
2023/11/25 10:03:42;;;;;;;6.80;1.13;;;;;;;-146.27;66.04;32769.59;5082131;28;20038;-72
2023/11/25 10:06:08;;;;;;;8.68;1.70;;;;;;;-146.27;65.90;32690.25;5103035;28;20554;-70
2023/11/25 10:08:34;;;;;;;10.10;1.33;;;;;;;-146.27;65.12;32690.25;5095763;28;20094;-71
2023/11/25 10:11:07;;;;;;;12.98;3.28;;;;;;;-146.27;64.77;32604.94;5094579;28;20020;-69
2023/11/25 10:13:42;;;;;;;11.32;1.45;;;;;;;-146.27;63.71;32676.34;5095389;28;20022;-69
2023/11/25 10:16:09;;;;;;;10.43;1.08;;;;;;;-146.27;63.47;32561.28;5104219;28;20035;-69
2023/11/25 10:18:38;;;;;;;6.10;1.35;;;;;;;-146.27;63.12;32424.41;5100079;28;20051;-70
2023/11/25 10:21:07;;;;;;;11.48;1.63;;;;;;;-146.27;63.79;32513.69;5096200;28;20496;-71
2023/11/25 10:23:35;;;;;;;13.88;3.08;;;;;;;-146.27;63.64;32485.91;5105114;28;20488;-70
2023/11/25 10:26:04;;;;;;;11.60;1.55;;;;;;;-146.27;64.82;32708.09;5095156;28;20368;-70
2023/11/25 10:28:38;;;;;;;13.27;2.10;;;;;;;-146.27;65.14;32638.66;5101415;28;20534;-69
2023/11/25 10:31:05;;;;;;;21.45;2.42;;;;;;;-146.27;65.73;32761.66;5091077;28;20104;-70
2023/11/25 10:33:31;;;;;;;17.00;2.10;;;;;;;-146.27;65.85;32652.53;5102783;28;20119;-70
2023/11/25 10:35:58;;;;;;;17.10;1.60;;;;;;;-146.27;65.31;32676.34;5105961;28;20193;-70
2023/11/25 10:38:27;;;;;;;14.70;1.80;;;;;;;-146.27;63.53;32571.22;5072153;28;20449;-70
2023/11/25 10:41:01;;;;;;;12.40;1.83;;;;;;;-146.27;64.26;32327.22;5093474;28;20024;-69
2023/11/25 10:43:30;;;;;;;26.02;2.25;;;;;;;-146.27;60.88;32065.38;5080627;28;20039;-70
2023/11/25 10:46:06;;;;;;;12.77;1.92;;;;;;;-146.27;59.87;31890.84;5095811;28;20476;-69
2023/11/25 10:48:33;;;;;;;15.43;4.78;;;;;;;-146.27;55.17;31767.88;5096867;28;20448;-69
2023/11/25 10:51:02;;;;;;;13.75;1.80;;;;;;;-146.27;53.00;31531.88;5097177;28;20020;-68
2023/11/25 10:53:29;;;;;;;16.15;2.05;;;;;;;-146.27;53.91;31426.75;5094935;28;20101;-69
2023/11/25 10:55:58;;;;;;;19.60;2.10;;;;;;;-146.27;53.90;31351.41;5102530;28;20077;-69
2023/11/25 10:58:26;;;;;;;14.80;2.17;;;;;;;-146.27;53.01;31680.63;5102363;28;20028;-69
2023/11/25 11:00:53;;;;;;;11.30;2.42;;;;;;;-146.27;53.06;31720.28;5080769;28;20507;-71
2023/11/25 11:03:24;;;;;;;9.95;1.58;;;;;;;-146.27;55.14;31970.19;5098039;28;20028;-69
2023/11/25 11:06:04;;;;;;;10.20;2.22;;;;;;;-146.27;60.03;32277.63;5096057;28;20024;-69
2023/11/25 11:08:37;;;;;;;22.45;2.55;;;;;;;-146.27;62.86;32404.59;5101788;28;20019;-69
2023/11/25 11:11:16;;;;;;;16.17;2.20;;;;;;;-146.27;67.92;32692.22;5104033;28;20055;-67